Time;durP1;ratioP1;P1;durP2;ratioP2;P2;SDS_P1;SDS_P2;PMS_P1;PMS_P2;Temp;Humidity;BMP_temperature;BMP_pressure;BME280_temperature;BME280_humidity;BME280_pressure;Samples;Min_cycle;Max_cycle;Signal;HPM_P1;HPM_P2
2021/03/05 00:00:31;;;;;;;14.57;8.63;;;14.00;57.90;;;;;;5067464;28;20192;-43
2021/03/05 00:02:57;;;;;;;16.00;8.80;;;14.00;58.10;;;;;;5070599;28;20446;-44
2021/03/05 00:05:23;;;;;;;9.43;8.20;;;14.00;58.30;;;;;;5069431;28;20849;-44
2021/03/05 00:07:48;;;;;;;11.77;10.50;;;13.90;58.80;;;;;;5070389;28;20223;-44
2021/03/05 00:10:21;;;;;;;14.40;11.00;;;14.00;58.50;;;;;;5066771;28;20308;-44
2021/03/05 00:12:46;;;;;;;14.57;12.90;;;13.90;58.80;;;;;;5071738;28;20226;-43
2021/03/05 00:15:13;;;;;;;14.90;12.10;;;13.90;58.80;;;;;;5072174;28;20458;-44
2021/03/05 00:17:39;;;;;;;13.43;11.80;;;14.00;58.70;;;;;;5073011;28;20266;-44
2021/03/05 00:20:19;;;;;;;13.97;12.50;;;13.90;58.50;;;;;;5068943;28;20491;-44
2021/03/05 00:22:45;;;;;;;11.37;10.27;;;13.70;58.50;;;;;;5067919;28;20519;-44
2021/03/05 00:25:11;;;;;;;11.80;10.60;;;13.60;57.90;;;;;;5070277;28;20980;-44
2021/03/05 00:27:37;;;;;;;12.50;11.23;;;13.50;57.90;;;;;;5070320;28;20384;-44
2021/03/05 00:30:05;;;;;;;11.20;10.10;;;13.20;58.20;;;;;;5070118;28;20347;-45
2021/03/05 00:32:31;;;;;;;12.67;11.37;;;13.10;58.30;;;;;;5069421;28;20549;-44
2021/03/05 00:34:56;;;;;;;12.73;11.43;;;13.00;58.70;;;;;;5071535;28;20484;-45
2021/03/05 00:37:22;;;;;;;13.43;12.03;;;13.00;58.90;;;;;;5071029;28;20449;-44
2021/03/05 00:39:47;;;;;;;12.60;11.33;;;12.90;58.50;;;;;;5067880;28;20196;-46
2021/03/05 00:42:13;;;;;;;16.37;13.23;;;12.90;58.50;;;;;;5071040;28;20196;-45
2021/03/05 00:44:38;;;;;;;17.40;12.73;;;12.90;58.70;;;;;;5069251;28;20654;-45
2021/03/05 00:47:04;;;;;;;13.10;11.73;;;12.80;58.40;;;;;;5071144;28;20273;-44
2021/03/05 00:49:30;;;;;;;14.97;13.37;;;12.60;58.40;;;;;;5069689;28;20683;-44
2021/03/05 00:51:56;;;;;;;16.17;13.87;;;12.60;58.70;;;;;;5070767;28;20204;-45
2021/03/05 00:54:21;;;;;;;15.23;12.33;;;12.70;58.80;;;;;;5069248;28;20588;-45
2021/03/05 00:56:47;;;;;;;14.60;13.13;;;12.80;58.40;;;;;;5069721;28;20238;-44
2021/03/05 00:59:13;;;;;;;15.60;13.70;;;12.90;58.20;;;;;;5069793;28;20496;-45
2021/03/05 01:01:38;;;;;;;15.30;13.80;;;12.80;58.00;;;;;;5065321;28;20794;-45
2021/03/05 01:04:04;;;;;;;16.63;14.83;;;12.70;57.70;;;;;;5070454;28;20285;-44
2021/03/05 01:06:30;;;;;;;15.90;13.80;;;12.50;58.00;;;;;;5069368;28;20224;-44
2021/03/05 01:08:56;;;;;;;16.80;15.00;;;12.40;58.50;;;;;;5071119;28;20242;-44
2021/03/05 01:11:21;;;;;;;15.53;13.93;;;12.60;57.90;;;;;;5065867;28;20192;-45
2021/03/05 01:13:47;;;;;;;16.40;14.50;;;12.30;58.00;;;;;;5069169;28;20857;-44
2021/03/05 01:16:12;;;;;;;15.57;13.87;;;12.30;58.30;;;;;;5069583;28;20214;-45
2021/03/05 01:18:38;;;;;;;16.23;14.27;;;12.30;58.20;;;;;;5071986;28;20196;-46
2021/03/05 01:21:04;;;;;;;16.40;13.17;;;12.10;57.90;;;;;;5069956;28;20199;-44
2021/03/05 01:23:31;;;;;;;15.03;12.87;;;11.90;58.30;;;;;;5069715;28;20249;-44
2021/03/05 01:25:57;;;;;;;18.97;14.33;;;11.90;58.60;;;;;;5068580;28;20435;-44
2021/03/05 01:28:23;;;;;;;18.00;13.90;;;12.10;58.30;;;;;;5064032;28;20497;-44
2021/03/05 01:30:48;;;;;;;13.03;11.07;;;12.40;57.60;;;;;;5068611;28;20466;-44
2021/03/05 01:33:14;;;;;;;17.03;14.17;;;12.40;56.80;;;;;;5067150;28;20242;-45
2021/03/05 01:35:39;;;;;;;17.60;13.50;;;12.50;56.80;;;;;;5069357;28;20192;-44
2021/03/05 01:38:05;;;;;;;17.23;12.90;;;12.60;55.60;;;;;;5067714;28;20188;-44
2021/03/05 01:40:35;;;;;;;15.17;12.03;;;12.60;55.40;;;;;;5067051;28;20667;-44
2021/03/05 01:43:01;;;;;;;16.80;12.60;;;12.60;55.50;;;;;;5072180;28;20188;-45
2021/03/05 01:45:30;;;;;;;15.13;11.97;;;12.70;55.20;;;;;;5068823;28;20442;-44
2021/03/05 01:48:17;;;;;;;14.03;10.40;;;12.50;55.10;;;;;;5066867;28;20477;-44
2021/03/05 01:50:51;;;;;;;16.67;9.90;;;12.30;54.70;;;;;;5062339;28;20446;-46
2021/03/05 01:53:17;;;;;;;13.90;11.90;;;12.30;54.70;;;;;;5067466;28;20449;-44
2021/03/05 01:55:43;;;;;;;11.40;10.20;;;12.20;54.60;;;;;;5070427;28;20787;-44
2021/03/05 01:58:09;;;;;;;13.53;11.00;;;12.00;54.80;;;;;;5069112;28;20449;-44
2021/03/05 02:00:38;;;;;;;17.37;11.83;;;12.10;55.00;;;;;;5066010;28;20925;-44
2021/03/05 02:03:04;;;;;;;13.67;11.00;;;12.10;54.90;;;;;;5069762;28;20253;-46
2021/03/05 02:05:30;;;;;;;14.40;11.93;;;12.20;55.10;;;;;;5063378;28;21052;-44
2021/03/05 02:07:55;;;;;;;13.93;11.70;;;12.00;55.00;;;;;;5048756;28;20516;-44
2021/03/05 02:10:21;;;;;;;14.20;11.67;;;11.90;55.20;;;;;;5066512;28;20203;-44
2021/03/05 02:12:47;;;;;;;16.60;12.07;;;11.70;55.00;;;;;;5070991;28;20553;-44
2021/03/05 02:15:13;;;;;;;14.60;12.20;;;11.50;55.70;;;;;;5070028;28;20195;-44
2021/03/05 02:18:02;;;;;;;12.80;9.63;;;11.60;55.70;;;;;;5068139;28;20223;-44
2021/03/05 02:20:30;;;;;;;15.23;12.90;;;11.70;55.40;;;;;;5066480;28;20442;-44
2021/03/05 02:23:10;;;;;;;14.80;12.00;;;11.90;55.20;;;;;;5067129;28;20470;-44
2021/03/05 02:26:16;;;;;;;13.20;10.70;;;12.00;55.20;;;;;;5068201;28;20531;-44
2021/03/05 02:29:18;;;;;;;15.30;12.40;;;12.10;54.50;;;;;;5064027;28;20486;-44
2021/03/05 02:31:55;;;;;;;13.53;11.00;;;12.30;54.10;;;;;;5066227;28;21290;-44
2021/03/05 02:34:31;;;;;;;14.67;11.70;;;12.30;53.80;;;;;;5065244;28;20533;-44
2021/03/05 02:37:17;;;;;;;16.40;12.40;;;12.40;54.20;;;;;;5070543;28;20445;-44
2021/03/05 02:40:06;;;;;;;16.87;12.97;;;12.60;54.00;;;;;;5067473;28;20465;-44
2021/03/05 02:42:47;;;;;;;17.70;14.00;;;12.80;53.80;;;;;;5062964;28;20581;-44
2021/03/05 02:45:17;;;;;;;17.83;14.13;;;12.80;52.90;;;;;;5068677;28;20458;-44
2021/03/05 02:47:48;;;;;;;15.87;13.87;;;12.90;53.00;;;;;;5069252;28;20481;-44
2021/03/05 02:50:17;;;;;;;17.40;13.77;;;12.90;52.70;;;;;;5067714;28;20441;-44
2021/03/05 02:52:45;;;;;;;19.07;14.60;;;12.80;52.90;;;;;;5069977;28;20434;-45
2021/03/05 02:55:12;;;;;;;16.90;13.07;;;12.90;53.20;;;;;;5066076;28;20445;-44
2021/03/05 02:57:44;;;;;;;18.13;13.43;;;12.80;52.70;;;;;;5069292;28;20445;-44
2021/03/05 03:00:10;;;;;;;16.13;13.57;;;12.50;52.90;;;;;;5064813;28;20944;-44
2021/03/05 03:02:37;;;;;;;15.63;12.23;;;12.40;53.00;;;;;;5064110;28;20482;-44
2021/03/05 03:05:04;;;;;;;16.80;13.10;;;12.20;53.30;;;;;;5067941;28;20438;-44
2021/03/05 03:07:31;;;;;;;16.17;12.40;;;12.20;54.00;;;;;;5069548;28;20576;-44
2021/03/05 03:09:58;;;;;;;13.93;12.37;;;12.00;54.30;;;;;;5067016;28;20444;-44
2021/03/05 03:12:23;;;;;;;17.20;13.00;;;12.00;54.50;;;;;;5070275;28;20438;-44
2021/03/05 03:14:50;;;;;;;12.53;11.10;;;12.10;54.20;;;;;;5072160;28;20950;-44
2021/03/05 03:17:16;;;;;;;15.93;12.43;;;12.10;54.10;;;;;;5073842;28;20245;-44
2021/03/05 03:19:50;;;;;;;15.43;11.30;;;12.30;54.40;;;;;;5066236;28;20812;-44
2021/03/05 03:22:17;;;;;;;15.43;11.53;;;12.30;54.30;;;;;;5074057;28;20926;-44
2021/03/05 03:24:45;;;;;;;14.97;11.93;;;12.40;53.60;;;;;;5069630;28;20533;-44
2021/03/05 03:27:10;;;;;;;15.00;12.40;;;12.00;53.20;;;;;;5069902;28;20852;-43
2021/03/05 03:29:36;;;;;;;14.93;12.13;;;11.80;53.90;;;;;;5071980;28;20434;-44
2021/03/05 03:32:03;;;;;;;15.23;11.73;;;11.70;54.60;;;;;;5071005;28;20200;-44
2021/03/05 03:34:29;;;;;;;14.70;11.70;;;11.70;55.00;;;;;;5071411;28;20196;-44
2021/03/05 03:36:56;;;;;;;14.37;12.50;;;11.60;54.90;;;;;;5071594;28;20439;-44
2021/03/05 03:39:23;;;;;;;14.07;11.87;;;11.40;54.80;;;;;;5073334;28;20195;-43
2021/03/05 03:41:49;;;;;;;13.93;11.37;;;11.50;55.10;;;;;;5073416;28;20446;-44
2021/03/05 03:44:15;;;;;;;14.20;12.53;;;11.40;55.20;;;;;;5072415;28;20445;-44
2021/03/05 03:46:47;;;;;;;14.10;12.23;;;11.40;55.50;;;;;;5074538;28;20274;-44
2021/03/05 03:49:19;;;;;;;14.40;11.63;;;11.50;55.10;;;;;;5071221;28;20703;-44
2021/03/05 03:51:50;;;;;;;14.70;11.13;;;11.40;55.50;;;;;;5068913;28;20511;-44
2021/03/05 03:54:17;;;;;;;13.30;11.70;;;11.50;55.50;;;;;;5072698;28;20501;-44
2021/03/05 03:56:43;;;;;;;13.73;11.60;;;11.40;55.30;;;;;;5073125;28;20445;-44
2021/03/05 03:59:15;;;;;;;14.37;12.17;;;11.40;55.30;;;;;;5072060;28;20449;-44
2021/03/05 04:01:44;;;;;;;12.63;10.73;;;11.60;55.20;;;;;;5071117;28;20458;-44
2021/03/05 04:04:11;;;;;;;11.33;9.47;;;11.70;55.10;;;;;;5069050;28;20545;-44
2021/03/05 04:06:38;;;;;;;13.80;11.13;;;11.60;54.90;;;;;;5069917;28;20438;-43
2021/03/05 04:09:04;;;;;;;12.73;10.40;;;11.70;55.20;;;;;;5071573;28;20538;-44
2021/03/05 04:11:31;;;;;;;12.30;10.20;;;11.60;54.70;;;;;;5069078;28;20438;-43
2021/03/05 04:13:57;;;;;;;11.37;10.17;;;11.40;55.20;;;;;;5068782;28;20797;-43
2021/03/05 04:16:22;;;;;;;9.63;8.03;;;11.50;55.30;;;;;;5070949;28;20442;-44
2021/03/05 04:18:48;;;;;;;10.30;9.30;;;11.50;55.40;;;;;;5068634;28;20180;-44
2021/03/05 04:21:18;;;;;;;11.33;9.63;;;11.60;55.40;;;;;;5069075;28;20199;-44
2021/03/05 04:23:44;;;;;;;10.83;9.70;;;11.70;55.10;;;;;;5072453;28;20192;-44
2021/03/05 04:26:10;;;;;;;12.23;10.93;;;11.70;55.00;;;;;;5053210;28;20454;-44
2021/03/05 04:28:35;;;;;;;12.07;9.87;;;11.70;54.80;;;;;;5072518;28;20481;-44
2021/03/05 04:31:01;;;;;;;10.00;8.80;;;11.50;54.50;;;;;;5067295;28;20223;-44
2021/03/05 04:33:27;;;;;;;11.87;10.33;;;11.40;55.20;;;;;;5069053;28;20666;-45
2021/03/05 04:35:53;;;;;;;10.70;9.40;;;11.40;55.30;;;;;;5069521;28;20442;-44
2021/03/05 04:38:18;;;;;;;14.80;10.47;;;11.40;55.20;;;;;;5064850;28;20199;-44
2021/03/05 04:40:44;;;;;;;10.97;9.83;;;11.50;55.10;;;;;;5063357;28;20200;-44
2021/03/05 04:43:10;;;;;;;10.20;9.10;;;11.50;55.00;;;;;;5067067;28;20269;-44
2021/03/05 04:45:35;;;;;;;9.40;8.50;;;11.60;54.70;;;;;;5068066;28;20216;-43
2021/03/05 04:48:01;;;;;;;12.80;9.50;;;11.70;54.60;;;;;;5072236;28;20230;-44
2021/03/05 04:50:27;;;;;;;9.67;8.77;;;11.70;54.50;;;;;;5069248;28;20271;-44
2021/03/05 04:52:52;;;;;;;8.93;7.90;;;11.70;54.00;;;;;;5070907;28;20227;-44
2021/03/05 04:55:18;;;;;;;8.67;7.77;;;11.70;54.40;;;;;;5070885;28;20321;-43
2021/03/05 04:57:44;;;;;;;11.30;9.10;;;11.50;54.80;;;;;;5072548;28;20270;-44
2021/03/05 05:00:10;;;;;;;9.17;8.27;;;11.20;55.00;;;;;;5072272;28;20274;-44
2021/03/05 05:02:35;;;;;;;10.37;8.67;;;11.20;55.20;;;;;;5070546;28;20196;-44
2021/03/05 05:05:01;;;;;;;11.90;9.70;;;11.10;55.50;;;;;;5067051;28;20442;-45
2021/03/05 05:07:27;;;;;;;9.30;8.23;;;11.30;55.50;;;;;;5069140;28;20224;-44
2021/03/05 05:09:52;;;;;;;10.07;8.67;;;11.60;55.30;;;;;;5070844;28;20196;-44
2021/03/05 05:12:19;;;;;;;10.30;9.07;;;11.70;54.60;;;;;;5070682;28;20195;-43
2021/03/05 05:14:44;;;;;;;9.07;8.10;;;11.80;54.30;;;;;;5065523;28;20245;-43
2021/03/05 05:17:10;;;;;;;9.73;8.73;;;11.90;54.30;;;;;;5064959;28;20733;-43
2021/03/05 05:19:36;;;;;;;9.50;8.47;;;12.00;54.10;;;;;;5070097;28;20188;-43
2021/03/05 05:22:02;;;;;;;10.07;9.00;;;12.10;54.00;;;;;;5071783;28;20609;-43
2021/03/05 05:24:27;;;;;;;10.10;8.90;;;12.20;53.50;;;;;;5069769;28;20200;-44
2021/03/05 05:26:53;;;;;;;9.47;8.47;;;12.30;53.40;;;;;;5066908;28;20283;-45
2021/03/05 05:29:19;;;;;;;8.70;7.80;;;12.40;53.30;;;;;;5068013;28;20199;-47
2021/03/05 05:31:44;;;;;;;9.77;8.83;;;12.50;52.80;;;;;;5070219;28;20281;-44
2021/03/05 05:34:10;;;;;;;6.87;6.17;;;12.70;52.80;;;;;;5068805;28;20184;-44
2021/03/05 05:36:35;;;;;;;9.33;7.70;;;12.70;52.80;;;;;;5069015;28;20188;-44
2021/03/05 05:39:01;;;;;;;4.80;4.30;;;12.80;51.80;;;;;;5071220;28;20200;-43
2021/03/05 05:41:27;;;;;;;5.60;4.90;;;12.80;52.10;;;;;;5069360;28;20199;-44
2021/03/05 05:43:52;;;;;;;8.10;7.03;;;12.90;52.10;;;;;;5071036;28;20271;-43
2021/03/05 05:46:21;;;;;;;6.93;6.17;;;12.80;51.60;;;;;;5067203;28;20196;-44
2021/03/05 05:48:48;;;;;;;7.00;6.07;;;12.90;51.20;;;;;;5067907;28;20730;-44
2021/03/05 05:51:29;;;;;;;6.70;5.53;;;13.00;51.60;;;;;;5066428;28;20435;-44
2021/03/05 05:54:02;;;;;;;7.43;6.60;;;13.10;50.60;;;;;;5062080;28;20792;-44
2021/03/05 05:56:27;;;;;;;8.57;7.10;;;13.20;50.10;;;;;;5062557;28;20442;-44
2021/03/05 05:58:54;;;;;;;9.10;6.83;;;13.30;51.20;;;;;;5066164;28;20426;-44
2021/03/05 06:01:19;;;;;;;8.00;6.20;;;13.30;49.80;;;;;;5064255;28;20643;-44
2021/03/05 06:03:45;;;;;;;9.03;7.40;;;13.50;50.80;;;;;;5069506;28;20489;-44
2021/03/05 06:06:15;;;;;;;6.97;5.80;;;13.50;48.70;;;;;;5070162;28;20202;-43
2021/03/05 06:08:41;;;;;;;7.50;6.20;;;13.50;50.60;;;;;;5066077;28;20235;-44
2021/03/05 06:11:07;;;;;;;9.47;7.23;;;13.50;50.00;;;;;;5070048;28;20441;-44
2021/03/05 06:13:32;;;;;;;9.27;7.40;;;13.60;48.70;;;;;;5068672;28;20196;-44
2021/03/05 06:16:11;;;;;;;10.03;7.70;;;13.40;47.80;;;;;;5069987;28;20195;-44
2021/03/05 06:18:37;;;;;;;7.73;6.83;;;13.30;48.10;;;;;;5066997;28;20221;-44
2021/03/05 06:21:02;;;;;;;11.10;8.60;;;13.00;48.40;;;;;;5062620;28;20438;-45
2021/03/05 06:23:28;;;;;;;9.47;7.33;;;12.80;48.70;;;;;;5070189;28;20184;-43
2021/03/05 06:26:01;;;;;;;10.50;7.20;;;12.70;49.10;;;;;;5068237;28;20192;-44
2021/03/05 06:28:27;;;;;;;9.80;7.20;;;12.60;49.30;;;;;;5063788;28;20223;-44
2021/03/05 06:30:53;;;;;;;10.23;8.10;;;12.60;49.60;;;;;;5069553;28;20477;-44
2021/03/05 06:33:30;;;;;;;9.53;7.97;;;12.50;49.70;;;;;;5068210;28;20445;-44
2021/03/05 06:36:13;;;;;;;8.43;7.53;;;12.50;49.80;;;;;;5066462;28;20457;-43
2021/03/05 06:38:44;;;;;;;9.77;7.80;;;12.30;49.80;;;;;;5068452;28;20442;-44
2021/03/05 06:41:18;;;;;;;12.27;7.90;;;12.30;49.80;;;;;;5065255;28;20489;-43
2021/03/05 06:43:48;;;;;;;10.33;7.87;;;12.20;50.10;;;;;;5070166;28;20917;-44
2021/03/05 06:46:37;;;;;;;10.57;8.20;;;12.20;50.40;;;;;;5069788;28;20432;-43
2021/03/05 06:49:16;;;;;;;11.73;8.33;;;11.90;50.20;;;;;;5070295;28;21073;-44
2021/03/05 06:51:50;;;;;;;11.37;8.63;;;11.80;50.90;;;;;;5071207;28;20521;-43
2021/03/05 06:54:15;;;;;;;9.20;7.10;;;11.70;51.20;;;;;;5069796;28;20434;-43
2021/03/05 06:56:46;;;;;;;10.80;9.10;;;11.60;51.50;;;;;;5071031;28;20440;-43
2021/03/05 06:59:14;;;;;;;10.20;8.30;;;11.60;51.60;;;;;;5069398;28;20651;-44
2021/03/05 07:01:47;;;;;;;10.70;8.20;;;11.50;51.30;;;;;;5071068;28;20442;-45
2021/03/05 07:04:16;;;;;;;11.60;8.10;;;11.50;51.70;;;;;;5069211;28;20442;-43
2021/03/05 07:06:42;;;;;;;11.47;8.57;;;11.50;52.00;;;;;;5071027;28;20427;-43
2021/03/05 07:09:27;;;;;;;11.50;8.47;;;11.50;52.00;;;;;;5071013;28;20488;-44
2021/03/05 07:11:54;;;;;;;12.10;8.50;;;11.50;51.80;;;;;;5069199;28;20466;-43
2021/03/05 07:14:32;;;;;;;12.90;8.03;;;11.50;51.90;;;;;;5070328;28;20438;-44
2021/03/05 07:16:59;;;;;;;10.30;8.30;;;11.50;52.10;;;;;;5069822;28;21294;-43
2021/03/05 07:19:28;;;;;;;10.23;8.00;;;11.50;52.10;;;;;;5069528;28;20480;-43
2021/03/05 07:21:54;;;;;;;9.73;7.63;;;11.60;52.20;;;;;;5070756;28;20422;-44
2021/03/05 07:24:25;;;;;;;10.30;7.57;;;11.60;51.90;;;;;;5069670;28;20516;-44
2021/03/05 07:27:00;;;;;;;9.90;7.37;;;11.60;52.20;;;;;;5067328;28;20811;-44
2021/03/05 07:29:27;;;;;;;11.70;8.20;;;11.60;52.10;;;;;;5065694;28;20433;-44
2021/03/05 07:32:10;;;;;;;11.83;8.70;;;11.50;52.10;;;;;;5067140;28;20439;-44
2021/03/05 07:35:00;;;;;;;11.07;8.30;;;11.50;52.30;;;;;;5066303;28;20520;-43
2021/03/05 07:37:36;;;;;;;11.30;9.00;;;11.60;52.40;;;;;;5069577;28;21242;-43
2021/03/05 07:40:08;;;;;;;9.50;8.27;;;11.70;52.40;;;;;;5067134;28;20445;-43
2021/03/05 07:42:34;;;;;;;10.63;8.77;;;11.80;52.10;;;;;;5068801;28;20474;-43
2021/03/05 07:45:03;;;;;;;10.27;7.90;;;11.80;52.10;;;;;;5070186;28;20465;-43
2021/03/05 07:47:31;;;;;;;9.10;7.20;;;11.80;52.10;;;;;;5070866;28;20510;-43
2021/03/05 07:50:00;;;;;;;11.73;8.10;;;11.70;52.00;;;;;;5070310;28;20435;-44
2021/03/05 07:52:26;;;;;;;10.10;7.40;;;11.80;52.10;;;;;;5067783;28;20518;-43
2021/03/05 07:54:52;;;;;;;12.13;8.50;;;11.80;52.00;;;;;;5063810;28;20521;-43
2021/03/05 07:57:18;;;;;;;11.20;7.87;;;11.80;51.80;;;;;;5072230;28;20192;-43
2021/03/05 07:59:44;;;;;;;12.10;8.60;;;11.80;52.00;;;;;;5071083;28;20434;-43
2021/03/05 08:02:10;;;;;;;11.37;8.13;;;11.80;52.00;;;;;;5072972;28;20203;-43
2021/03/05 08:07:17;;;;;;;11.20;8.80;;;11.80;51.70;;;;;;5073995;28;20497;-43
2021/03/05 08:09:43;;;;;;;10.83;8.60;;;11.80;51.80;;;;;;5072861;28;20792;-44
2021/03/05 08:12:35;;;;;;;11.17;8.30;;;11.80;52.00;;;;;;5073350;28;20433;-43
2021/03/05 08:15:07;;;;;;;12.27;9.97;;;11.80;52.10;;;;;;5072806;28;20587;-43
2021/03/05 08:17:43;;;;;;;13.03;9.50;;;11.80;52.10;;;;;;5074433;28;20439;-43
2021/03/05 08:20:18;;;;;;;11.63;8.20;;;11.80;52.10;;;;;;5072895;28;20468;-43
2021/03/05 08:22:58;;;;;;;11.57;8.93;;;11.90;52.10;;;;;;5072586;28;20461;-44
2021/03/05 08:25:31;;;;;;;12.63;9.10;;;11.90;52.00;;;;;;5071612;28;20438;-43
2021/03/05 08:27:58;;;;;;;15.63;8.27;;;11.90;51.90;;;;;;5071741;28;20576;-44
2021/03/05 08:30:26;;;;;;;13.47;9.37;;;11.90;52.10;;;;;;5073289;28;21018;-43
2021/03/05 08:32:59;;;;;;;12.73;9.37;;;11.90;52.40;;;;;;5073074;28;20446;-43
2021/03/05 08:35:30;;;;;;;13.30;9.67;;;11.90;52.20;;;;;;5073013;28;20477;-43
2021/03/05 08:38:20;;;;;;;9.40;7.77;;;12.00;52.40;;;;;;5073484;28;20444;-44
2021/03/05 08:40:48;;;;;;;13.50;9.47;;;12.00;52.10;;;;;;5072289;28;20926;-43
2021/03/05 08:43:24;;;;;;;14.03;10.03;;;12.00;52.00;;;;;;5073068;28;20426;-43
2021/03/05 08:45:51;;;;;;;12.80;8.50;;;12.00;52.30;;;;;;5071187;28;20949;-43
2021/03/05 08:48:37;;;;;;;13.00;9.80;;;12.00;52.10;;;;;;5072486;28;20481;-43
2021/03/05 08:51:04;;;;;;;10.77;8.50;;;12.00;52.10;;;;;;5069459;28;20442;-43
2021/03/05 08:53:40;;;;;;;10.80;8.23;;;12.00;52.30;;;;;;5069997;28;20434;-43
2021/03/05 08:56:06;;;;;;;14.67;10.70;;;11.90;52.20;;;;;;5071793;28;20446;-43
2021/03/05 08:58:33;;;;;;;13.57;10.30;;;12.00;52.20;;;;;;5072407;28;20453;-43
2021/03/05 09:00:58;;;;;;;12.70;9.37;;;12.00;51.90;;;;;;5071227;28;20188;-43
2021/03/05 09:03:25;;;;;;;11.90;9.30;;;12.00;51.70;;;;;;5072987;28;20992;-43
2021/03/05 09:05:51;;;;;;;12.83;9.50;;;12.10;51.70;;;;;;5072383;28;20215;-44
2021/03/05 09:08:23;;;;;;;12.53;8.77;;;12.10;51.60;;;;;;5071700;28;20485;-43
2021/03/05 09:10:59;;;;;;;12.87;8.73;;;12.00;51.20;;;;;;5068170;28;20526;-43
2021/03/05 09:13:29;;;;;;;11.57;8.80;;;12.00;51.30;;;;;;5069168;28;20429;-43
2021/03/05 09:15:57;;;;;;;10.63;9.00;;;11.90;51.80;;;;;;5072003;28;20454;-43
2021/03/05 09:18:25;;;;;;;11.60;8.83;;;12.00;51.80;;;;;;5071817;28;20441;-43
2021/03/05 09:20:56;;;;;;;14.87;9.43;;;11.90;51.70;;;;;;5070180;28;20430;-43
2021/03/05 09:23:22;;;;;;;12.77;8.90;;;12.00;51.80;;;;;;5072304;28;20444;-44
2021/03/05 09:25:50;;;;;;;12.73;9.57;;;12.00;51.60;;;;;;5060423;28;21110;-44
2021/03/05 09:28:16;;;;;;;13.03;7.87;;;12.00;51.50;;;;;;5068448;28;20228;-44
2021/03/05 09:30:47;;;;;;;12.63;8.40;;;12.10;51.50;;;;;;5070228;28;20988;-44
2021/03/05 09:33:12;;;;;;;14.00;10.03;;;12.10;51.40;;;;;;5071420;28;20446;-45
2021/03/05 09:35:38;;;;;;;12.60;9.20;;;12.10;51.30;;;;;;5070829;28;20435;-43
2021/03/05 09:38:05;;;;;;;9.80;8.10;;;12.00;51.30;;;;;;5070356;28;20188;-48
2021/03/05 09:40:31;;;;;;;10.80;8.53;;;11.90;51.60;;;;;;5070760;28;20199;-43
2021/03/05 09:43:01;;;;;;;13.17;10.27;;;11.90;51.90;;;;;;5070353;28;21541;-43
2021/03/05 09:45:43;;;;;;;11.90;8.77;;;11.90;51.90;;;;;;5070468;28;20188;-43
2021/03/05 09:48:30;;;;;;;14.33;9.27;;;11.90;51.80;;;;;;5067298;28;20547;-44
2021/03/05 09:51:01;;;;;;;12.47;9.33;;;11.90;51.80;;;;;;5064946;28;21034;-44
2021/03/05 09:53:31;;;;;;;12.37;9.23;;;11.90;51.90;;;;;;5072237;28;20495;-43
2021/03/05 09:56:02;;;;;;;13.80;9.37;;;12.00;51.70;;;;;;5067825;28;20832;-43
2021/03/05 09:58:29;;;;;;;12.33;8.43;;;12.10;51.40;;;;;;5067711;28;20431;-42
2021/03/05 10:00:55;;;;;;;12.60;8.27;;;12.30;51.30;;;;;;5070050;28;20430;-42
2021/03/05 10:03:22;;;;;;;12.17;8.70;;;12.40;51.20;;;;;;5070162;28;20448;-42
2021/03/05 10:05:48;;;;;;;10.97;8.67;;;12.30;50.70;;;;;;5065531;28;21039;-42
2021/03/05 10:08:18;;;;;;;13.63;10.43;;;12.30;50.80;;;;;;5048582;28;20980;-43
2021/03/05 10:11:03;;;;;;;12.60;9.10;;;12.30;50.90;;;;;;5068323;28;20805;-42
2021/03/05 10:13:43;;;;;;;11.90;8.93;;;12.40;50.80;;;;;;5067577;28;20434;-42
2021/03/05 10:16:22;;;;;;;11.83;9.23;;;12.40;50.70;;;;;;5070792;28;20975;-42
2021/03/05 10:18:51;;;;;;;19.40;11.07;;;12.30;51.40;;;;;;5066412;28;20446;-42
2021/03/05 10:21:19;;;;;;;14.20;10.60;;;12.40;50.80;;;;;;5070425;28;20484;-42
2021/03/05 10:23:45;;;;;;;12.07;9.10;;;12.30;50.60;;;;;;5070454;28;20482;-42
2021/03/05 10:26:24;;;;;;;12.90;8.03;;;12.40;50.70;;;;;;5068814;28;20489;-43
2021/03/05 10:29:01;;;;;;;15.77;10.53;;;12.50;50.40;;;;;;5066466;28;20488;-43
2021/03/05 10:31:42;;;;;;;15.33;9.90;;;12.40;49.80;;;;;;5065832;28;20465;-43
2021/03/05 10:34:28;;;;;;;13.67;10.10;;;12.30;50.40;;;;;;5067742;28;20450;-42
2021/03/05 10:37:04;;;;;;;11.10;9.60;;;12.30;50.20;;;;;;5069887;28;20839;-42
2021/03/05 10:39:33;;;;;;;15.40;10.40;;;12.30;50.80;;;;;;5068339;28;20552;-42
2021/03/05 10:42:04;;;;;;;18.80;11.57;;;12.40;50.40;;;;;;5069955;28;20439;-43
2021/03/05 10:44:32;;;;;;;11.93;8.97;;;12.50;50.20;;;;;;5070318;28;20446;-43
2021/03/05 10:47:03;;;;;;;12.57;8.03;;;12.70;50.00;;;;;;5067752;28;20432;-43
2021/03/05 10:49:29;;;;;;;13.97;8.63;;;12.80;49.70;;;;;;5066899;28;20507;-43
2021/03/05 10:51:56;;;;;;;14.07;10.30;;;12.70;49.40;;;;;;5070453;28;20427;-43
2021/03/05 10:54:21;;;;;;;12.30;9.63;;;12.70;49.60;;;;;;5064724;28;20445;-43
2021/03/05 10:56:48;;;;;;;12.63;8.60;;;12.70;49.70;;;;;;5069261;28;20792;-43
2021/03/05 10:59:16;;;;;;;10.33;8.10;;;12.70;49.90;;;;;;5069115;28;20202;-43
2021/03/05 11:01:42;;;;;;;11.67;8.03;;;12.70;49.70;;;;;;5069840;28;20438;-43
2021/03/05 11:04:07;;;;;;;10.90;8.50;;;12.80;49.50;;;;;;5069350;28;20426;-43
2021/03/05 11:06:33;;;;;;;11.33;9.27;;;12.80;49.10;;;;;;5069266;28;20223;-42
2021/03/05 11:09:00;;;;;;;14.90;9.40;;;12.80;49.30;;;;;;5068160;28;20306;-43
2021/03/05 11:11:25;;;;;;;17.20;9.57;;;12.80;48.90;;;;;;5069723;28;22081;-43
2021/03/05 11:13:51;;;;;;;11.13;8.57;;;12.60;48.90;;;;;;5068477;28;20529;-42
2021/03/05 11:16:17;;;;;;;12.73;9.00;;;12.60;49.30;;;;;;5069424;28;20219;-43
2021/03/05 11:18:42;;;;;;;15.00;8.80;;;12.70;49.50;;;;;;5069332;28;20461;-43
2021/03/05 11:21:08;;;;;;;11.90;8.50;;;12.80;49.50;;;;;;5068146;28;20651;-42
2021/03/05 11:23:34;;;;;;;8.63;7.30;;;12.90;49.10;;;;;;5070383;28;20199;-43
2021/03/05 11:25:59;;;;;;;11.27;9.17;;;13.00;49.50;;;;;;5068798;28;20271;-43
2021/03/05 11:28:25;;;;;;;10.90;7.70;;;12.90;48.60;;;;;;5068846;28;20591;-44
2021/03/05 11:30:51;;;;;;;11.90;8.70;;;13.00;48.70;;;;;;5066562;28;20344;-43
2021/03/05 11:33:17;;;;;;;11.07;8.93;;;13.00;48.90;;;;;;5072512;28;20621;-42
2021/03/05 11:35:43;;;;;;;12.07;9.33;;;13.00;50.40;;;;;;5073149;28;20458;-42
2021/03/05 11:38:08;;;;;;;12.63;9.33;;;13.10;48.20;;;;;;5073409;28;20192;-42
2021/03/05 11:40:34;;;;;;;12.73;9.70;;;13.00;47.80;;;;;;5072390;28;20184;-42
2021/03/05 11:43:00;;;;;;;13.77;9.50;;;12.80;48.10;;;;;;5074079;28;20642;-42
2021/03/05 11:45:25;;;;;;;10.53;8.27;;;12.80;48.40;;;;;;5071571;28;20194;-42
2021/03/05 11:47:51;;;;;;;11.47;8.50;;;12.80;48.30;;;;;;5072513;28;20234;-42
2021/03/05 11:50:17;;;;;;;11.43;9.13;;;12.80;48.20;;;;;;5073874;28;20708;-42
2021/03/05 11:52:44;;;;;;;11.80;9.37;;;12.70;48.40;;;;;;5072833;28;20198;-42
2021/03/05 11:55:10;;;;;;;13.13;9.33;;;12.70;47.90;;;;;;5072740;28;20199;-42
2021/03/05 11:57:35;;;;;;;12.40;9.97;;;12.80;47.80;;;;;;5072074;28;20433;-42
2021/03/05 12:00:03;;;;;;;12.00;8.20;;;12.80;47.80;;;;;;5063260;28;20431;-42
2021/03/05 12:02:28;;;;;;;11.73;9.27;;;12.80;47.60;;;;;;5073331;28;20547;-42
2021/03/05 12:04:54;;;;;;;12.47;9.47;;;12.80;48.00;;;;;;5071164;28;20507;-43
2021/03/05 12:07:19;;;;;;;12.17;9.13;;;12.80;48.00;;;;;;5071672;28;20303;-42
2021/03/05 12:09:45;;;;;;;11.47;8.43;;;12.70;48.00;;;;;;5070863;28;20630;-42
2021/03/05 12:12:11;;;;;;;14.60;9.27;;;12.80;47.90;;;;;;5073595;28;20600;-42
2021/03/05 12:14:37;;;;;;;11.00;8.83;;;12.80;47.80;;;;;;5072609;28;20192;-42
2021/03/05 12:17:02;;;;;;;11.97;9.20;;;12.80;47.70;;;;;;5072876;28;20964;-42
2021/03/05 12:19:28;;;;;;;11.50;8.87;;;12.90;47.50;;;;;;5072433;28;20691;-42
2021/03/05 12:21:53;;;;;;;12.50;9.17;;;12.80;47.30;;;;;;5073140;28;20287;-42
2021/03/05 12:24:19;;;;;;;14.17;10.47;;;12.90;47.60;;;;;;5067260;28;20693;-42
2021/03/05 12:26:45;;;;;;;14.43;8.47;;;12.90;47.60;;;;;;5072868;28;20562;-42
2021/03/05 12:29:10;;;;;;;9.97;8.87;;;13.00;47.50;;;;;;5073289;28;20219;-42
2021/03/05 12:31:36;;;;;;;14.30;9.50;;;13.00;47.10;;;;;;5072331;28;20227;-42
2021/03/05 12:34:03;;;;;;;13.40;9.73;;;13.00;46.70;;;;;;5072927;28;20262;-43
2021/03/05 12:36:29;;;;;;;11.53;8.77;;;13.00;46.80;;;;;;5070257;28;20203;-43
2021/03/05 12:38:55;;;;;;;12.13;9.60;;;13.00;47.50;;;;;;5066707;28;20809;-43
2021/03/05 12:41:21;;;;;;;11.40;8.63;;;13.10;48.20;;;;;;5061295;28;20533;-43
2021/03/05 12:43:46;;;;;;;14.87;8.07;;;13.20;47.60;;;;;;5061027;28;20192;-43
2021/03/05 12:46:12;;;;;;;11.00;8.30;;;13.30;47.20;;;;;;5069483;28;20442;-43